WON2404 WICC-WAHI
Flight info
| Callsign | WON2404 |
|---|---|
| Flight time | 0h 53m |
| Altitude | 17000 |
| Route | CLP |
| Aircraft | AT76/M-SDFGIRY/S |
Departure
| Time | 2026-04-24 02:21 |
|---|---|
| Airport | Husein Sastranegara International Airport (WICC) |
Arrival
| Time | 2026-04-24 03:15 |
|---|---|
| Airport | Yogyakarta International Airport (WAHI) |
| Time | Latitude | Longitude | Altitude | Speed | Heading |
|---|---|---|---|---|---|
| 2026-04-24 01:48 | -6.90262 | 107.57703 | 2421 ft | 0 kts | 188° |
| 2026-04-24 02:15 | -6.90271 | 107.57701 | 2418 ft | 1 kts | 200° |
| 2026-04-24 02:15 | -6.90274 | 107.57692 | 2418 ft | 3 kts | 256° |
| 2026-04-24 02:15 | -6.90253 | 107.57672 | 2418 ft | 6 kts | 342° |
| 2026-04-24 02:15 | -6.90210 | 107.57680 | 2421 ft | 7 kts | 18° |
| 2026-04-24 02:16 | -6.90156 | 107.57700 | 2423 ft | 9 kts | 19° |
| 2026-04-24 02:16 | -6.90097 | 107.57703 | 2422 ft | 9 kts | 325° |
| 2026-04-24 02:16 | -6.90070 | 107.57641 | 2425 ft | 12 kts | 288° |
| 2026-04-24 02:16 | -6.90039 | 107.57550 | 2420 ft | 16 kts | 289° |
| 2026-04-24 02:17 | -6.89999 | 107.57434 | 2420 ft | 19 kts | 289° |
| 2026-04-24 02:17 | -6.89948 | 107.57286 | 2417 ft | 27 kts | 290° |
| 2026-04-24 02:17 | -6.89894 | 107.57125 | 2418 ft | 22 kts | 289° |
| 2026-04-24 02:17 | -6.89848 | 107.56990 | 2422 ft | 19 kts | 289° |
| 2026-04-24 02:18 | -6.89792 | 107.56828 | 2419 ft | 30 kts | 289° |
| 2026-04-24 02:18 | -6.89771 | 107.56694 | 2424 ft | 13 kts | 275° |
| 2026-04-24 02:18 | -6.89747 | 107.56686 | 2423 ft | 2 kts | 56° |
| 2026-04-24 02:18 | -6.89748 | 107.56699 | 2419 ft | 2 kts | 107° |
| 2026-04-24 02:19 | -6.89748 | 107.56700 | 2419 ft | 0 kts | 107° |
| 2026-04-24 02:20 | -6.89750 | 107.56705 | 2421 ft | 10 kts | 107° |
| 2026-04-24 02:20 | -6.89839 | 107.56966 | 2422 ft | 68 kts | 109° |
| 2026-04-24 02:20 | -6.90053 | 107.57589 | 2424 ft | 117 kts | 109° |
| 2026-04-24 02:21 | -6.90349 | 107.58457 | 2598 ft | 138 kts | 109° |
| 2026-04-24 02:21 | -6.90667 | 107.59397 | 3038 ft | 144 kts | 107° |
| 2026-04-24 02:21 | -6.90974 | 107.60364 | 3578 ft | 144 kts | 107° |
| 2026-04-24 02:21 | -6.91281 | 107.61319 | 4113 ft | 142 kts | 106° |
| 2026-04-24 02:22 | -6.91606 | 107.62276 | 4357 ft | 154 kts | 107° |
| 2026-04-24 02:22 | -6.91991 | 107.63368 | 4437 ft | 176 kts | 108° |
| 2026-04-24 02:22 | -6.92407 | 107.64560 | 4619 ft | 182 kts | 107° |
| 2026-04-24 02:22 | -6.92818 | 107.65750 | 5025 ft | 179 kts | 107° |
| 2026-04-24 02:23 | -6.93238 | 107.66920 | 5344 ft | 181 kts | 107° |
| 2026-04-24 02:23 | -6.93670 | 107.68122 | 5720 ft | 182 kts | 105° |
| 2026-04-24 02:23 | -6.94083 | 107.69333 | 6103 ft | 182 kts | 105° |
| 2026-04-24 02:23 | -6.94480 | 107.70555 | 6419 ft | 184 kts | 105° |
| 2026-04-24 02:24 | -6.94890 | 107.71784 | 6790 ft | 185 kts | 105° |
| 2026-04-24 02:24 | -6.95296 | 107.73000 | 7116 ft | 186 kts | 105° |
| 2026-04-24 02:24 | -6.95720 | 107.74233 | 7381 ft | 187 kts | 106° |
| 2026-04-24 02:24 | -6.96147 | 107.75479 | 7672 ft | 188 kts | 105° |
| 2026-04-24 02:25 | -6.96572 | 107.76733 | 7951 ft | 189 kts | 105° |
| 2026-04-24 02:25 | -6.97011 | 107.77995 | 8237 ft | 192 kts | 106° |
| 2026-04-24 02:25 | -6.97452 | 107.79270 | 8516 ft | 194 kts | 107° |
| 2026-04-24 02:25 | -6.97889 | 107.80562 | 8773 ft | 195 kts | 105° |
| 2026-04-24 02:26 | -6.98326 | 107.81858 | 9058 ft | 195 kts | 105° |
| 2026-04-24 02:26 | -6.98761 | 107.83150 | 9318 ft | 195 kts | 106° |
| 2026-04-24 02:26 | -6.99202 | 107.84434 | 9598 ft | 197 kts | 106° |
| 2026-04-24 02:26 | -6.99653 | 107.85741 | 9864 ft | 199 kts | 106° |
| 2026-04-24 02:27 | -7.00103 | 107.87060 | 10122 ft | 200 kts | 106° |
| 2026-04-24 02:27 | -7.00548 | 107.88387 | 10388 ft | 199 kts | 106° |
| 2026-04-24 02:27 | -7.01107 | 107.89655 | 10582 ft | 203 kts | 127° |
| 2026-04-24 02:27 | -7.02343 | 107.90374 | 10716 ft | 215 kts | 169° |
| 2026-04-24 02:28 | -7.03806 | 107.90121 | 10938 ft | 219 kts | 209° |
| 2026-04-24 02:28 | -7.04840 | 107.89025 | 11235 ft | 217 kts | 239° |
| 2026-04-24 02:28 | -7.05793 | 107.87866 | 11445 ft | 218 kts | 209° |
| 2026-04-24 02:28 | -7.07220 | 107.87541 | 11607 ft | 213 kts | 173° |
| 2026-04-24 02:29 | -7.08690 | 107.87707 | 11804 ft | 214 kts | 169° |
| 2026-04-24 02:29 | -7.10165 | 107.87920 | 12005 ft | 217 kts | 169° |
| 2026-04-24 02:29 | -7.11655 | 107.88155 | 12253 ft | 216 kts | 168° |
| 2026-04-24 02:29 | -7.13138 | 107.88405 | 12483 ft | 217 kts | 168° |
| 2026-04-24 02:30 | -7.14548 | 107.88888 | 12659 ft | 214 kts | 139° |
| 2026-04-24 02:30 | -7.15451 | 107.90036 | 12855 ft | 210 kts | 111° |
| 2026-04-24 02:30 | -7.15719 | 107.91462 | 13025 ft | 208 kts | 94° |
| 2026-04-24 02:30 | -7.15836 | 107.92931 | 13169 ft | 212 kts | 92° |
| 2026-04-24 02:31 | -7.15928 | 107.94398 | 13365 ft | 212 kts | 91° |
| 2026-04-24 02:31 | -7.16000 | 107.95876 | 13574 ft | 211 kts | 91° |
| 2026-04-24 02:31 | -7.16060 | 107.97351 | 13772 ft | 211 kts | 91° |
| 2026-04-24 02:31 | -7.16103 | 107.98830 | 13940 ft | 211 kts | 88° |
| 2026-04-24 02:32 | -7.16003 | 108.00306 | 14108 ft | 211 kts | 83° |
| 2026-04-24 02:32 | -7.15863 | 108.01785 | 14288 ft | 212 kts | 83° |
| 2026-04-24 02:32 | -7.15736 | 108.03269 | 14449 ft | 211 kts | 87° |
| 2026-04-24 02:32 | -7.15907 | 108.04748 | 14621 ft | 215 kts | 101° |
| 2026-04-24 02:33 | -7.16312 | 108.06198 | 14817 ft | 215 kts | 107° |
| 2026-04-24 02:33 | -7.16817 | 108.07639 | 14902 ft | 221 kts | 108° |
| 2026-04-24 02:33 | -7.17453 | 108.09069 | 14937 ft | 227 kts | 117° |
| 2026-04-24 02:33 | -7.18232 | 108.10475 | 14968 ft | 233 kts | 117° |
| 2026-04-24 02:34 | -7.18943 | 108.11933 | 14972 ft | 237 kts | 114° |
| 2026-04-24 02:34 | -7.19698 | 108.13426 | 14982 ft | 242 kts | 116° |
| 2026-04-24 02:34 | -7.20474 | 108.14941 | 14987 ft | 245 kts | 115° |
| 2026-04-24 02:34 | -7.21245 | 108.16483 | 14980 ft | 248 kts | 115° |
| 2026-04-24 02:35 | -7.22039 | 108.18037 | 14969 ft | 251 kts | 115° |
| 2026-04-24 02:35 | -7.22827 | 108.19606 | 14974 ft | 252 kts | 115° |
| 2026-04-24 02:35 | -7.23621 | 108.21177 | 14965 ft | 252 kts | 115° |
| 2026-04-24 02:35 | -7.24423 | 108.22750 | 14971 ft | 253 kts | 115° |
| 2026-04-24 02:36 | -7.25215 | 108.24328 | 14959 ft | 252 kts | 115° |
| 2026-04-24 02:36 | -7.26013 | 108.25904 | 14962 ft | 252 kts | 115° |
| 2026-04-24 02:36 | -7.26808 | 108.27470 | 14968 ft | 251 kts | 115° |
| 2026-04-24 02:36 | -7.27600 | 108.29042 | 14964 ft | 251 kts | 115° |
| 2026-04-24 02:37 | -7.28389 | 108.30595 | 14970 ft | 251 kts | 115° |
| 2026-04-24 02:37 | -7.29180 | 108.32167 | 14965 ft | 252 kts | 115° |
| 2026-04-24 02:37 | -7.29976 | 108.33736 | 14960 ft | 252 kts | 115° |
| 2026-04-24 02:37 | -7.30760 | 108.35311 | 14971 ft | 252 kts | 115° |
| 2026-04-24 02:38 | -7.31540 | 108.36893 | 14958 ft | 252 kts | 115° |
| 2026-04-24 02:38 | -7.32326 | 108.38479 | 14963 ft | 253 kts | 114° |
| 2026-04-24 02:38 | -7.33109 | 108.40068 | 14971 ft | 253 kts | 115° |
| 2026-04-24 02:38 | -7.33892 | 108.41663 | 14965 ft | 255 kts | 115° |
| 2026-04-24 02:39 | -7.34675 | 108.43267 | 14952 ft | 255 kts | 114° |
| 2026-04-24 02:39 | -7.35457 | 108.44870 | 14944 ft | 255 kts | 114° |
| 2026-04-24 02:39 | -7.36237 | 108.46472 | 14950 ft | 254 kts | 115° |
| 2026-04-24 02:39 | -7.37007 | 108.48047 | 14950 ft | 254 kts | 115° |
| 2026-04-24 02:40 | -7.37797 | 108.49644 | 14948 ft | 254 kts | 115° |
| 2026-04-24 02:40 | -7.38592 | 108.51233 | 14948 ft | 253 kts | 115° |
| 2026-04-24 02:40 | -7.39387 | 108.52817 | 14949 ft | 253 kts | 115° |
| 2026-04-24 02:40 | -7.40181 | 108.54406 | 14949 ft | 254 kts | 115° |
| 2026-04-24 02:41 | -7.40974 | 108.55993 | 14948 ft | 254 kts | 115° |
| 2026-04-24 02:41 | -7.41766 | 108.57580 | 14945 ft | 253 kts | 115° |
| 2026-04-24 02:41 | -7.42559 | 108.59169 | 14945 ft | 253 kts | 115° |
| 2026-04-24 02:41 | -7.43337 | 108.60734 | 14942 ft | 254 kts | 115° |
| 2026-04-24 02:42 | -7.44123 | 108.62330 | 14941 ft | 253 kts | 115° |
| 2026-04-24 02:42 | -7.44910 | 108.63921 | 14946 ft | 253 kts | 115° |
| 2026-04-24 02:42 | -7.45698 | 108.65509 | 14947 ft | 254 kts | 115° |
| 2026-04-24 02:42 | -7.46488 | 108.67109 | 14936 ft | 254 kts | 115° |
| 2026-04-24 02:43 | -7.47275 | 108.68700 | 14945 ft | 254 kts | 115° |
| 2026-04-24 02:43 | -7.48066 | 108.70297 | 14950 ft | 254 kts | 115° |
| 2026-04-24 02:43 | -7.48856 | 108.71895 | 14938 ft | 255 kts | 115° |
| 2026-04-24 02:43 | -7.49643 | 108.73494 | 14930 ft | 255 kts | 115° |
| 2026-04-24 02:44 | -7.50431 | 108.75094 | 14942 ft | 255 kts | 115° |
| 2026-04-24 02:44 | -7.51224 | 108.76695 | 14932 ft | 255 kts | 115° |
| 2026-04-24 02:44 | -7.52005 | 108.78273 | 14939 ft | 255 kts | 115° |
| 2026-04-24 02:44 | -7.52790 | 108.79872 | 14935 ft | 254 kts | 115° |
| 2026-04-24 02:45 | -7.53571 | 108.81471 | 14942 ft | 254 kts | 115° |
| 2026-04-24 02:45 | -7.54352 | 108.83076 | 14934 ft | 255 kts | 115° |
| 2026-04-24 02:45 | -7.55136 | 108.84678 | 14934 ft | 255 kts | 115° |
| 2026-04-24 02:45 | -7.55926 | 108.86279 | 14943 ft | 256 kts | 115° |
| 2026-04-24 02:46 | -7.56720 | 108.87885 | 14933 ft | 257 kts | 115° |
| 2026-04-24 02:46 | -7.57259 | 108.88973 | 14925 ft | 257 kts | 115° |
| 2026-04-24 02:46 | -7.58055 | 108.90582 | 14926 ft | 257 kts | 115° |
| 2026-04-24 02:46 | -7.58850 | 108.92188 | 14935 ft | 256 kts | 115° |
| 2026-04-24 02:47 | -7.59644 | 108.93796 | 14932 ft | 256 kts | 115° |
| 2026-04-24 02:47 | -7.60425 | 108.95379 | 14925 ft | 255 kts | 115° |
| 2026-04-24 02:47 | -7.61224 | 108.96999 | 14925 ft | 255 kts | 115° |
| 2026-04-24 02:47 | -7.62003 | 108.98580 | 14937 ft | 255 kts | 115° |
| 2026-04-24 02:48 | -7.62792 | 109.00184 | 14929 ft | 256 kts | 115° |
| 2026-04-24 02:48 | -7.63585 | 109.01790 | 14919 ft | 255 kts | 115° |
| 2026-04-24 02:48 | -7.64374 | 109.03394 | 14933 ft | 255 kts | 114° |
| 2026-04-24 02:48 | -7.64825 | 109.05106 | 14925 ft | 252 kts | 96° |
| 2026-04-24 02:49 | -7.64991 | 109.06863 | 14915 ft | 251 kts | 93° |
| 2026-04-24 02:49 | -7.65121 | 109.08621 | 14928 ft | 252 kts | 94° |
| 2026-04-24 02:49 | -7.65285 | 109.10381 | 14920 ft | 252 kts | 95° |
| 2026-04-24 02:49 | -7.65496 | 109.12115 | 14921 ft | 252 kts | 96° |
| 2026-04-24 02:50 | -7.65720 | 109.13872 | 14921 ft | 252 kts | 96° |
| 2026-04-24 02:50 | -7.65939 | 109.15628 | 14922 ft | 252 kts | 96° |
| 2026-04-24 02:50 | -7.66160 | 109.17383 | 14920 ft | 252 kts | 96° |
| 2026-04-24 02:50 | -7.66379 | 109.19136 | 14920 ft | 253 kts | 96° |
| 2026-04-24 02:51 | -7.66597 | 109.20897 | 14917 ft | 253 kts | 96° |
| 2026-04-24 02:51 | -7.66817 | 109.22660 | 14930 ft | 253 kts | 96° |
| 2026-04-24 02:51 | -7.67037 | 109.24423 | 14916 ft | 254 kts | 96° |
| 2026-04-24 02:51 | -7.67258 | 109.26188 | 14925 ft | 254 kts | 96° |
| 2026-04-24 02:52 | -7.67476 | 109.27956 | 14927 ft | 255 kts | 96° |
| 2026-04-24 02:52 | -7.67698 | 109.29729 | 14909 ft | 255 kts | 96° |
| 2026-04-24 02:52 | -7.67915 | 109.31482 | 14915 ft | 254 kts | 96° |
| 2026-04-24 02:52 | -7.68135 | 109.33248 | 14913 ft | 254 kts | 96° |
| 2026-04-24 02:53 | -7.68357 | 109.35016 | 14921 ft | 254 kts | 96° |
| 2026-04-24 02:53 | -7.68575 | 109.36779 | 14919 ft | 254 kts | 96° |
| 2026-04-24 02:53 | -7.68795 | 109.38545 | 14923 ft | 254 kts | 96° |
| 2026-04-24 02:53 | -7.69014 | 109.40315 | 14915 ft | 254 kts | 96° |
| 2026-04-24 02:54 | -7.69234 | 109.42086 | 14913 ft | 254 kts | 96° |
| 2026-04-24 02:54 | -7.69454 | 109.43852 | 14915 ft | 254 kts | 96° |
| 2026-04-24 02:54 | -7.69673 | 109.45618 | 14915 ft | 254 kts | 96° |
| 2026-04-24 02:54 | -7.69891 | 109.47366 | 14914 ft | 253 kts | 96° |
| 2026-04-24 02:55 | -7.70109 | 109.49132 | 14915 ft | 253 kts | 96° |
| 2026-04-24 02:55 | -7.70329 | 109.50895 | 14921 ft | 253 kts | 96° |
| 2026-04-24 02:55 | -7.70546 | 109.52659 | 14919 ft | 253 kts | 96° |
| 2026-04-24 02:55 | -7.70764 | 109.54424 | 14924 ft | 254 kts | 96° |
| 2026-04-24 02:56 | -7.70983 | 109.56189 | 14913 ft | 254 kts | 96° |
| 2026-04-24 02:56 | -7.71205 | 109.57958 | 14911 ft | 254 kts | 96° |
| 2026-04-24 02:56 | -7.71423 | 109.59724 | 14910 ft | 254 kts | 96° |
| 2026-04-24 02:56 | -7.71640 | 109.61489 | 14914 ft | 254 kts | 96° |
| 2026-04-24 02:57 | -7.71860 | 109.63253 | 14915 ft | 254 kts | 96° |
| 2026-04-24 02:57 | -7.72104 | 109.65009 | 14909 ft | 251 kts | 103° |
| 2026-04-24 02:57 | -7.72909 | 109.66555 | 14922 ft | 249 kts | 122° |
| 2026-04-24 02:57 | -7.73491 | 109.68168 | 14922 ft | 245 kts | 99° |
| 2026-04-24 02:58 | -7.73770 | 109.69845 | 14919 ft | 247 kts | 98° |
| 2026-04-24 02:58 | -7.74029 | 109.71562 | 14924 ft | 249 kts | 97° |
| 2026-04-24 02:58 | -7.74278 | 109.73295 | 14908 ft | 250 kts | 97° |
| 2026-04-24 02:58 | -7.74523 | 109.75054 | 14705 ft | 255 kts | 96° |
| 2026-04-24 02:59 | -7.74767 | 109.76830 | 14491 ft | 255 kts | 96° |
| 2026-04-24 02:59 | -7.75205 | 109.78545 | 14242 ft | 255 kts | 118° |
| 2026-04-24 02:59 | -7.76452 | 109.79792 | 14040 ft | 258 kts | 151° |
| 2026-04-24 02:59 | -7.78179 | 109.80284 | 13822 ft | 259 kts | 173° |
| 2026-04-24 03:00 | -7.79986 | 109.80406 | 13575 ft | 261 kts | 176° |
| 2026-04-24 03:00 | -7.81806 | 109.80468 | 13332 ft | 262 kts | 177° |
| 2026-04-24 03:00 | -7.83630 | 109.80503 | 13073 ft | 263 kts | 178° |
| 2026-04-24 03:00 | -7.85468 | 109.80525 | 12813 ft | 263 kts | 178° |
| 2026-04-24 03:01 | -7.87280 | 109.80534 | 12567 ft | 264 kts | 179° |
| 2026-04-24 03:01 | -7.89120 | 109.80530 | 12321 ft | 265 kts | 179° |
| 2026-04-24 03:01 | -7.90966 | 109.80527 | 12084 ft | 266 kts | 179° |
| 2026-04-24 03:01 | -7.92823 | 109.80526 | 11840 ft | 266 kts | 179° |
| 2026-04-24 03:02 | -7.94678 | 109.80525 | 11602 ft | 267 kts | 179° |
| 2026-04-24 03:02 | -7.96539 | 109.80526 | 11356 ft | 267 kts | 179° |
| 2026-04-24 03:02 | -7.98402 | 109.80534 | 11118 ft | 265 kts | 176° |
| 2026-04-24 03:02 | -8.00138 | 109.81034 | 10876 ft | 259 kts | 152° |
| 2026-04-24 03:03 | -8.01753 | 109.81851 | 10652 ft | 261 kts | 152° |
| 2026-04-24 03:03 | -8.03383 | 109.82676 | 10432 ft | 264 kts | 153° |
| 2026-04-24 03:03 | -8.05078 | 109.83408 | 10201 ft | 266 kts | 158° |
| 2026-04-24 03:03 | -8.06856 | 109.83981 | 9976 ft | 269 kts | 163° |
| 2026-04-24 03:04 | -8.08653 | 109.84434 | 9747 ft | 271 kts | 165° |
| 2026-04-24 03:04 | -8.10492 | 109.84868 | 9492 ft | 270 kts | 164° |
| 2026-04-24 03:04 | -8.12106 | 109.85747 | 9232 ft | 265 kts | 133° |
| 2026-04-24 03:04 | -8.13019 | 109.87310 | 8985 ft | 257 kts | 106° |
| 2026-04-24 03:05 | -8.13524 | 109.89035 | 8745 ft | 256 kts | 103° |
| 2026-04-24 03:05 | -8.13972 | 109.90770 | 8500 ft | 256 kts | 102° |
| 2026-04-24 03:05 | -8.14398 | 109.92515 | 8259 ft | 256 kts | 101° |
| 2026-04-24 03:05 | -8.14814 | 109.94255 | 8016 ft | 254 kts | 101° |
| 2026-04-24 03:06 | -8.15220 | 109.95982 | 7778 ft | 253 kts | 101° |
| 2026-04-24 03:06 | -8.15623 | 109.97705 | 7537 ft | 251 kts | 101° |
| 2026-04-24 03:06 | -8.16025 | 109.99421 | 7301 ft | 251 kts | 101° |
| 2026-04-24 03:06 | -8.16426 | 110.01133 | 7012 ft | 251 kts | 101° |
| 2026-04-24 03:07 | -8.16822 | 110.02843 | 6669 ft | 247 kts | 98° |
| 2026-04-24 03:07 | -8.16677 | 110.04495 | 6314 ft | 240 kts | 65° |
| 2026-04-24 03:07 | -8.15659 | 110.05786 | 5952 ft | 234 kts | 41° |
| 2026-04-24 03:07 | -8.14415 | 110.06849 | 5580 ft | 235 kts | 39° |
| 2026-04-24 03:08 | -8.13136 | 110.07876 | 5216 ft | 235 kts | 38° |
| 2026-04-24 03:08 | -8.10307 | 110.09440 | 4497 ft | 232 kts | 25° |
| 2026-04-24 03:08 | -8.08857 | 110.10151 | 4183 ft | 229 kts | 27° |
| 2026-04-24 03:09 | -8.07476 | 110.10904 | 4042 ft | 221 kts | 30° |
| 2026-04-24 03:09 | -8.06175 | 110.11663 | 3972 ft | 212 kts | 31° |
| 2026-04-24 03:09 | -8.04929 | 110.12399 | 3937 ft | 203 kts | 30° |
| 2026-04-24 03:09 | -8.03734 | 110.13097 | 3917 ft | 195 kts | 30° |
| 2026-04-24 03:10 | -8.02563 | 110.13784 | 3736 ft | 195 kts | 30° |
| 2026-04-24 03:10 | -8.01442 | 110.14438 | 3490 ft | 180 kts | 30° |
| 2026-04-24 03:10 | -8.00391 | 110.15049 | 3250 ft | 165 kts | 30° |
| 2026-04-24 03:10 | -7.99414 | 110.15618 | 3000 ft | 160 kts | 30° |
| 2026-04-24 03:11 | -7.98457 | 110.16175 | 2767 ft | 162 kts | 30° |
| 2026-04-24 03:11 | -7.97482 | 110.16741 | 2530 ft | 161 kts | 31° |
| 2026-04-24 03:11 | -7.96442 | 110.17017 | 2301 ft | 157 kts | 349° |
| 2026-04-24 03:11 | -7.95557 | 110.16410 | 2169 ft | 155 kts | 318° |
| 2026-04-24 03:12 | -7.94800 | 110.15625 | 2198 ft | 157 kts | 312° |
| 2026-04-24 03:12 | -7.94111 | 110.14769 | 2271 ft | 155 kts | 310° |
| 2026-04-24 03:12 | -7.93492 | 110.13909 | 2094 ft | 149 kts | 305° |
| 2026-04-24 03:12 | -7.92930 | 110.13043 | 1961 ft | 151 kts | 298° |
| 2026-04-24 03:13 | -7.92551 | 110.12052 | 1703 ft | 148 kts | 289° |
| 2026-04-24 03:13 | -7.92386 | 110.11055 | 1345 ft | 144 kts | 275° |
| 2026-04-24 03:13 | -7.92197 | 110.10083 | 1026 ft | 138 kts | 292° |
| 2026-04-24 03:13 | -7.91808 | 110.09202 | 632 ft | 137 kts | 291° |
| 2026-04-24 03:14 | -7.91489 | 110.08361 | 385 ft | 123 kts | 288° |
| 2026-04-24 03:14 | -7.91206 | 110.07582 | 199 ft | 116 kts | 286° |
| 2026-04-24 03:14 | -7.90933 | 110.06822 | 50 ft | 112 kts | 286° |
| 2026-04-24 03:14 | -7.90712 | 110.06200 | 38 ft | 57 kts | 293° |
| 2026-04-24 03:15 | -7.90615 | 110.05951 | 41 ft | 32 kts | 295° |
| 2026-04-24 03:15 | -7.90550 | 110.05771 | 41 ft | 24 kts | 289° |
| 2026-04-24 03:15 | -7.90501 | 110.05638 | 41 ft | 18 kts | 290° |
| 2026-04-24 03:15 | -7.90435 | 110.05460 | 38 ft | 35 kts | 291° |
| 2026-04-24 03:16 | -7.90305 | 110.05249 | 35 ft | 26 kts | 315° |
| 2026-04-24 03:16 | -7.90227 | 110.05185 | 34 ft | 13 kts | 328° |
| 2026-04-24 03:16 | -7.90169 | 110.05215 | 34 ft | 11 kts | 77° |
| 2026-04-24 03:16 | -7.90187 | 110.05285 | 36 ft | 10 kts | 113° |
| 2026-04-24 03:17 | -7.90215 | 110.05350 | 37 ft | 10 kts | 111° |
| 2026-04-24 03:17 | -7.90244 | 110.05430 | 38 ft | 15 kts | 110° |
| 2026-04-24 03:17 | -7.90281 | 110.05529 | 39 ft | 15 kts | 112° |
| 2026-04-24 03:17 | -7.90312 | 110.05620 | 40 ft | 13 kts | 110° |
| 2026-04-24 03:18 | -7.90345 | 110.05707 | 41 ft | 14 kts | 109° |
| 2026-04-24 03:18 | -7.90291 | 110.05765 | 37 ft | 14 kts | 20° |
| 2026-04-24 03:18 | -7.90206 | 110.05805 | 34 ft | 9 kts | 63° |
| 2026-04-24 03:18 | -7.90218 | 110.05874 | 34 ft | 11 kts | 106° |
| 2026-04-24 03:19 | -7.90244 | 110.05950 | 34 ft | 9 kts | 113° |
| 2026-04-24 03:19 | -7.90272 | 110.06014 | 34 ft | 11 kts | 110° |
| 2026-04-24 03:19 | -7.90267 | 110.06043 | 34 ft | 4 kts | 31° |
| 2026-04-24 03:19 | -7.90229 | 110.06057 | 34 ft | 8 kts | 20° |
| 2026-04-24 03:20 | -7.90199 | 110.06068 | 34 ft | 0 kts | 18° |